createdAt,value
2022-10-13T00:01:14.625Z,15.00
2022-10-13T00:03:42.706Z,18.50
2022-10-13T00:06:11.127Z,19.00
2022-10-13T00:08:39.062Z,17.75
2022-10-13T00:11:23.714Z,16.00
2022-10-13T00:13:51.186Z,16.00
2022-10-13T00:16:20.836Z,17.00
2022-10-13T00:18:48.705Z,17.00
2022-10-13T00:21:18.479Z,19.00
2022-10-13T00:23:45.570Z,16.50
2022-10-13T00:26:16.138Z,18.00
2022-10-13T00:28:45.512Z,17.00
2022-10-13T00:31:25.050Z,16.00
2022-10-13T00:33:52.471Z,17.75
2022-10-13T00:36:23.059Z,18.00
2022-10-13T00:38:50.273Z,18.00
2022-10-13T00:41:17.397Z,16.00
2022-10-13T00:43:58.050Z,13.00
2022-10-13T00:46:28.018Z,16.75
2022-10-13T00:49:04.285Z,16.00
2022-10-13T00:51:35.256Z,16.00
2022-10-13T00:54:05.072Z,18.75
2022-10-13T00:56:32.457Z,20.00
2022-10-13T00:59:01.320Z,17.75
2022-10-13T01:01:28.456Z,18.00
2022-10-13T01:03:55.314Z,16.00
2022-10-13T01:06:23.808Z,16.00
2022-10-13T01:08:51.370Z,19.00
2022-10-13T01:11:31.433Z,16.00
2022-10-13T01:14:04.301Z,15.00
2022-10-13T01:16:31.133Z,14.00
2022-10-13T01:19:19.651Z,14.00
2022-10-13T01:22:11.381Z,14.00
2022-10-13T01:24:52.473Z,14.00
2022-10-13T01:27:43.963Z,15.75
2022-10-13T01:30:13.243Z,16.00
2022-10-13T01:32:49.309Z,15.00
2022-10-13T01:35:22.150Z,17.75
2022-10-13T01:37:59.464Z,19.25
2022-10-13T01:40:32.764Z,18.00
2022-10-13T01:43:16.903Z,18.00
2022-10-13T01:45:54.178Z,15.00
2022-10-13T01:48:22.116Z,15.00
2022-10-13T01:50:53.509Z,14.00
2022-10-13T01:53:21.563Z,15.00
2022-10-13T01:55:58.942Z,14.00
2022-10-13T01:58:30.360Z,18.00
2022-10-13T02:01:22.611Z,15.25
2022-10-13T02:03:55.393Z,17.25
2022-10-13T02:06:30.943Z,18.00
2022-10-13T02:09:03.989Z,18.00
2022-10-13T02:11:31.005Z,16.00
2022-10-13T02:14:00.760Z,18.00
2022-10-13T02:16:33.920Z,15.75
2022-10-13T02:19:04.644Z,15.00
2022-10-13T02:21:32.013Z,13.50
2022-10-13T02:24:03.978Z,13.00
2022-10-13T02:26:33.077Z,12.00
2022-10-13T02:29:14.551Z,15.00
2022-10-13T02:31:42.139Z,19.00
2022-10-13T02:34:09.430Z,18.00
2022-10-13T02:36:37.616Z,18.00
2022-10-13T02:39:06.070Z,20.00
2022-10-13T02:41:33.132Z,17.50
2022-10-13T02:43:59.991Z,17.00
2022-10-13T02:46:34.397Z,15.50
2022-10-13T02:49:01.773Z,15.00
2022-10-13T02:51:28.951Z,15.00
2022-10-13T02:53:55.802Z,14.00
2022-10-13T02:56:22.623Z,18.00
2022-10-13T02:58:50.806Z,16.00
2022-10-13T03:01:17.595Z,14.00
2022-10-13T03:03:44.482Z,18.00
2022-10-13T03:06:11.403Z,16.00
2022-10-13T03:08:38.407Z,15.00
2022-10-13T03:11:05.651Z,19.00
2022-10-13T03:13:32.587Z,18.00
2022-10-13T03:16:07.274Z,19.75
2022-10-13T03:18:34.868Z,20.75
2022-10-13T03:21:06.477Z,20.00
2022-10-13T03:23:34.010Z,19.00
2022-10-13T03:26:00.873Z,18.00
2022-10-13T03:28:28.055Z,16.00
2022-10-13T03:31:06.769Z,17.50
2022-10-13T03:33:33.652Z,19.50
2022-10-13T03:36:02.434Z,18.00
2022-10-13T03:38:33.394Z,19.00
2022-10-13T03:41:11.458Z,18.00
2022-10-13T03:43:39.553Z,20.00
2022-10-13T03:46:07.487Z,19.00
2022-10-13T03:48:35.667Z,18.00
2022-10-13T03:51:11.104Z,16.00
2022-10-13T03:53:45.782Z,16.00
2022-10-13T03:56:18.529Z,15.00
2022-10-13T03:59:00.882Z,16.00
2022-10-13T04:01:30.195Z,16.00
2022-10-13T04:03:58.647Z,19.25
2022-10-13T04:06:26.868Z,20.00
2022-10-13T04:08:54.481Z,17.00
2022-10-13T04:11:22.199Z,19.25
2022-10-13T04:13:57.067Z,21.00
2022-10-13T04:16:29.159Z,19.00
2022-10-13T04:19:05.035Z,18.00
2022-10-13T04:21:34.335Z,15.00
2022-10-13T04:24:02.333Z,18.00
2022-10-13T04:26:35.926Z,17.00
2022-10-13T04:29:11.123Z,17.00
2022-10-13T04:31:39.864Z,18.00
2022-10-13T04:34:06.656Z,18.75
2022-10-13T04:36:33.657Z,16.25
2022-10-13T04:39:00.503Z,16.00
2022-10-13T04:41:27.485Z,16.00
2022-10-13T04:43:54.478Z,17.00
2022-10-13T04:46:24.090Z,18.00
2022-10-13T04:48:53.212Z,19.00
2022-10-13T04:51:24.486Z,21.50
2022-10-13T04:53:59.410Z,20.50
2022-10-13T04:56:26.928Z,19.00
2022-10-13T04:59:03.337Z,17.00
2022-10-13T05:01:30.364Z,19.00
2022-10-13T05:04:00.510Z,18.00
2022-10-13T05:06:31.005Z,20.25
2022-10-13T05:08:58.305Z,20.75
2022-10-13T05:11:26.841Z,18.50
2022-10-13T05:13:54.557Z,18.00
2022-10-13T05:16:22.764Z,20.75
2022-10-13T05:19:11.173Z,19.00
2022-10-13T05:21:39.132Z,21.00
2022-10-13T05:24:06.366Z,19.00
2022-10-13T05:26:36.048Z,18.50
2022-10-13T05:29:03.464Z,21.00
2022-10-13T05:31:32.861Z,19.00
2022-10-13T05:34:01.331Z,19.50
2022-10-13T05:36:34.708Z,19.50
2022-10-13T05:39:04.633Z,19.25
2022-10-13T05:41:31.957Z,22.00
2022-10-13T05:44:02.547Z,22.25
2022-10-13T05:46:29.772Z,21.50
2022-10-13T05:48:56.720Z,22.00
2022-10-13T05:51:30.547Z,22.00
2022-10-13T05:54:30.185Z,22.00
2022-10-13T05:57:06.329Z,22.00
2022-10-13T05:59:42.575Z,22.00
2022-10-13T06:02:13.947Z,19.00
2022-10-13T06:04:48.245Z,19.50
2022-10-13T06:07:23.786Z,22.75
2022-10-13T06:09:50.932Z,22.00
2022-10-13T06:12:17.973Z,22.00
2022-10-13T06:14:58.417Z,22.00
2022-10-13T06:17:25.486Z,22.00
2022-10-13T06:19:52.273Z,20.50
2022-10-13T06:22:19.397Z,21.25
2022-10-13T06:25:07.937Z,22.00
2022-10-13T06:27:34.883Z,21.00
2022-10-13T06:30:02.202Z,21.75
2022-10-13T06:32:29.261Z,23.00
2022-10-13T06:34:56.135Z,23.00
2022-10-13T06:37:27.074Z,21.00
2022-10-13T06:39:57.187Z,21.00
2022-10-13T06:42:24.094Z,21.25
2022-10-13T06:45:08.793Z,21.00
2022-10-13T06:47:55.164Z,22.00
2022-10-13T06:50:23.158Z,21.00
2022-10-13T06:52:51.508Z,22.00
2022-10-13T06:55:55.732Z,19.50
2022-10-13T06:58:22.651Z,19.00
2022-10-13T07:00:49.576Z,21.00
2022-10-13T07:03:16.508Z,22.00
2022-10-13T07:05:43.307Z,20.00
2022-10-13T07:08:10.168Z,21.00
2022-10-13T07:10:40.775Z,22.00
2022-10-13T07:13:08.132Z,22.00
2022-10-13T07:15:38.492Z,22.50
2022-10-13T07:18:05.643Z,22.00
2022-10-13T07:20:32.673Z,22.00
2022-10-13T07:22:59.604Z,21.00
2022-10-13T07:25:26.451Z,19.75
2022-10-13T07:27:53.374Z,19.00
2022-10-13T07:30:20.262Z,20.75
2022-10-13T07:32:48.081Z,21.00
2022-10-13T07:35:15.019Z,21.00
2022-10-13T07:37:41.997Z,21.00
2022-10-13T07:40:09.503Z,22.00
2022-10-13T07:42:36.402Z,20.00
2022-10-13T07:45:04.029Z,21.25
2022-10-13T07:47:31.460Z,23.25
2022-10-13T07:49:58.459Z,21.00
2022-10-13T07:52:25.450Z,22.00
2022-10-13T07:54:52.300Z,21.00
2022-10-13T07:57:21.556Z,22.25
2022-10-13T07:59:48.299Z,21.00
2022-10-13T08:02:45.044Z,22.00
2022-10-13T08:05:11.914Z,22.00
2022-10-13T08:07:38.671Z,23.00
2022-10-13T08:10:06.168Z,22.50
2022-10-13T08:12:34.778Z,22.00
2022-10-13T08:15:05.317Z,20.50
2022-10-13T08:17:33.771Z,22.00
2022-10-13T08:20:00.668Z,23.00
2022-10-13T08:22:28.567Z,22.00
2022-10-13T08:24:55.495Z,23.00
2022-10-13T08:27:32.832Z,23.00
2022-10-13T08:30:12.837Z,22.00
2022-10-13T08:32:39.663Z,23.00
2022-10-13T08:35:06.905Z,23.00
2022-10-13T08:37:46.057Z,23.00
2022-10-13T08:40:25.856Z,21.00
2022-10-13T08:43:00.137Z,23.00
2022-10-13T08:45:41.847Z,23.00
2022-10-13T08:51:53.770Z,21.00
2022-10-13T08:54:44.792Z,23.00
2022-10-13T08:57:12.856Z,23.00
2022-10-13T08:59:45.300Z,22.00
2022-10-13T09:02:25.051Z,23.00
2022-10-13T09:05:03.386Z,23.00
2022-10-13T09:07:35.012Z,22.00
2022-10-13T09:10:08.870Z,23.50
2022-10-13T09:12:40.886Z,23.00
2022-10-13T09:15:10.853Z,22.00
2022-10-13T09:17:42.382Z,23.00
2022-10-13T09:20:18.427Z,23.00
2022-10-13T09:23:02.065Z,23.00
2022-10-13T09:25:29.936Z,23.00
2022-10-13T09:28:10.576Z,24.00
2022-10-13T09:30:48.325Z,23.00
2022-10-13T09:33:26.947Z,24.00
2022-10-13T09:35:56.951Z,24.00
2022-10-13T09:38:25.974Z,23.00
2022-10-13T09:41:15.340Z,22.50
2022-10-13T09:43:48.221Z,23.00
2022-10-13T09:46:47.852Z,21.50
2022-10-13T09:49:42.276Z,23.00
2022-10-13T09:52:13.207Z,23.00
2022-10-13T09:54:40.335Z,24.00
2022-10-13T09:57:19.882Z,23.00
2022-10-13T09:59:51.494Z,22.00
2022-10-13T10:02:34.674Z,22.50
2022-10-13T10:05:14.339Z,23.00
2022-10-13T10:07:41.470Z,22.00
2022-10-13T10:10:26.911Z,23.00
2022-10-13T10:12:54.378Z,23.00
2022-10-13T10:15:26.405Z,22.00
2022-10-13T10:18:01.780Z,22.00
2022-10-13T10:20:46.877Z,22.00
2022-10-13T10:23:52.904Z,22.00
2022-10-13T10:26:30.111Z,22.00
2022-10-13T10:29:21.300Z,22.00
2022-10-13T10:32:04.050Z,22.00
2022-10-13T10:34:42.163Z,22.00
2022-10-13T10:37:11.771Z,22.00
2022-10-13T10:40:00.115Z,21.00
2022-10-13T10:43:21.208Z,21.50
2022-10-13T10:45:48.661Z,21.75
2022-10-13T10:48:57.979Z,22.50
2022-10-13T10:51:31.541Z,22.00
2022-10-13T10:54:08.218Z,22.00
2022-10-13T10:56:42.560Z,22.00
2022-10-13T10:59:22.634Z,22.00
2022-10-13T11:01:58.921Z,21.00
2022-10-13T11:04:38.722Z,21.00
2022-10-13T11:07:11.673Z,22.25
2022-10-13T11:09:41.560Z,22.00
2022-10-13T11:12:21.009Z,22.00
2022-10-13T11:14:53.891Z,21.75
2022-10-13T11:17:34.251Z,22.00
2022-10-13T11:20:01.141Z,22.00
2022-10-13T11:22:30.100Z,22.00
2022-10-13T11:25:22.586Z,22.00
2022-10-13T11:28:23.537Z,22.00
2022-10-13T11:30:51.541Z,22.00
2022-10-13T11:33:51.730Z,22.00
2022-10-13T11:36:38.701Z,22.00
2022-10-13T11:39:53.446Z,22.00
2022-10-13T11:42:41.955Z,22.00
2022-10-13T11:45:22.683Z,22.00
2022-10-13T11:48:33.252Z,22.75
2022-10-13T11:51:24.403Z,22.00
2022-10-13T11:54:20.085Z,22.00
2022-10-13T11:56:50.348Z,23.00
2022-10-13T11:59:25.502Z,23.00
2022-10-13T12:01:56.740Z,24.00
2022-10-13T12:04:25.842Z,22.00
2022-10-13T12:07:02.523Z,22.00
2022-10-13T12:09:31.800Z,22.00
2022-10-13T12:12:05.558Z,22.00
2022-10-13T12:14:44.903Z,22.00
2022-10-13T12:17:27.669Z,22.00
2022-10-13T12:19:57.863Z,22.50
2022-10-13T12:22:26.002Z,22.00
2022-10-13T12:25:00.282Z,22.00
2022-10-13T12:27:29.543Z,22.00
2022-10-13T12:30:27.500Z,22.00
2022-10-13T12:32:57.716Z,21.25
2022-10-13T12:35:45.255Z,21.00
2022-10-13T12:38:19.368Z,20.00
2022-10-13T12:41:10.542Z,21.00
2022-10-13T12:43:38.490Z,21.00
2022-10-13T12:46:05.480Z,21.00
2022-10-13T12:48:35.055Z,22.00
2022-10-13T12:51:15.507Z,20.25
2022-10-13T12:53:44.662Z,21.25
2022-10-13T12:56:42.114Z,20.00
2022-10-13T12:59:16.949Z,21.00
2022-10-13T13:01:57.724Z,23.00
2022-10-13T13:04:30.291Z,22.00
2022-10-13T13:06:58.895Z,22.00
2022-10-13T13:09:35.710Z,22.00
2022-10-13T13:12:04.174Z,22.00
2022-10-13T13:14:40.592Z,24.00
2022-10-13T13:17:07.425Z,24.00
2022-10-13T13:19:35.985Z,24.00
2022-10-13T13:22:05.506Z,25.00
2022-10-13T13:24:40.083Z,24.00
2022-10-13T13:27:21.863Z,23.00
2022-10-13T13:29:49.418Z,22.00
2022-10-13T13:32:20.227Z,22.00
2022-10-13T13:34:48.032Z,22.00
2022-10-13T13:37:26.791Z,22.00
2022-10-13T13:39:54.042Z,22.00
2022-10-13T13:42:21.189Z,21.00
2022-10-13T13:44:48.713Z,22.00
2022-10-13T13:47:21.583Z,22.00
2022-10-13T13:49:50.689Z,21.75
2022-10-13T13:52:18.378Z,22.00
2022-10-13T13:54:46.197Z,23.00
2022-10-13T13:57:14.696Z,23.50
2022-10-13T13:59:42.194Z,23.00
2022-10-13T14:02:17.304Z,22.25
2022-10-13T14:04:44.593Z,23.00
2022-10-13T14:07:11.764Z,22.00
2022-10-13T14:09:38.665Z,22.00
2022-10-13T14:12:06.299Z,20.00
2022-10-13T14:14:33.295Z,21.00
2022-10-13T14:17:01.354Z,20.00
2022-10-13T14:19:46.561Z,17.00
2022-10-13T14:22:13.584Z,20.25
2022-10-13T14:24:40.540Z,20.00
2022-10-13T14:27:08.200Z,19.00
2022-10-13T14:29:36.468Z,19.00
2022-10-13T14:32:03.738Z,20.75
2022-10-13T14:34:33.360Z,23.00
2022-10-13T14:37:00.283Z,21.00
2022-10-13T14:39:27.166Z,21.25
2022-10-13T14:41:54.083Z,22.00
2022-10-13T14:44:23.449Z,21.00
2022-10-13T14:46:50.611Z,20.25
2022-10-13T14:49:17.445Z,21.50
2022-10-13T14:51:46.325Z,22.00
2022-10-13T14:54:15.727Z,22.00
2022-10-13T14:56:42.655Z,21.00
2022-10-13T14:59:11.225Z,21.00
2022-10-13T15:01:40.615Z,22.75
2022-10-13T15:04:08.422Z,21.00
2022-10-13T15:06:38.883Z,21.00
2022-10-13T15:09:06.412Z,21.00
2022-10-13T15:11:33.250Z,21.00
2022-10-13T15:14:00.366Z,21.00
2022-10-13T15:16:29.737Z,19.00
2022-10-13T15:18:57.162Z,19.00
2022-10-13T15:21:24.519Z,20.50
2022-10-13T15:23:51.682Z,20.00
2022-10-13T15:26:20.136Z,20.00
2022-10-13T15:28:56.963Z,22.75
2022-10-13T15:31:23.961Z,24.00
2022-10-13T15:33:54.176Z,27.75
2022-10-13T15:36:22.581Z,26.00
2022-10-13T15:38:52.600Z,23.00
2022-10-13T15:41:19.738Z,23.00
2022-10-13T15:43:46.653Z,23.00
2022-10-13T15:46:15.933Z,22.00
2022-10-13T15:49:21.395Z,21.00
2022-10-13T15:51:48.795Z,20.50
2022-10-13T15:54:15.941Z,18.00
2022-10-13T15:56:43.867Z,19.75
2022-10-13T15:59:11.064Z,20.00
2022-10-13T16:01:37.977Z,20.00
2022-10-13T16:04:07.137Z,19.00
2022-10-13T16:06:36.528Z,20.25
2022-10-13T16:09:03.931Z,19.00
2022-10-13T16:11:31.042Z,20.00
2022-10-13T16:13:57.951Z,18.00
2022-10-13T16:16:24.963Z,19.00
2022-10-13T16:18:55.206Z,20.50
2022-10-13T16:21:24.377Z,19.00
2022-10-13T16:23:52.722Z,20.50
2022-10-13T16:26:20.006Z,20.00
2022-10-13T16:28:47.155Z,21.00
2022-10-13T16:31:17.756Z,21.00
2022-10-13T16:34:10.759Z,20.00
2022-10-13T16:36:37.639Z,21.00
2022-10-13T16:39:07.970Z,20.00
2022-10-13T16:41:38.941Z,20.50
2022-10-13T16:44:06.935Z,20.00
2022-10-13T16:46:34.513Z,20.50
2022-10-13T16:49:01.491Z,21.00
2022-10-13T16:51:29.258Z,20.00
2022-10-13T16:54:03.672Z,21.25
2022-10-13T16:56:32.005Z,22.00
2022-10-13T16:59:01.554Z,20.00
2022-10-13T17:01:29.681Z,20.00
2022-10-13T17:04:00.109Z,20.00
2022-10-13T17:06:28.943Z,22.00
2022-10-13T17:08:58.053Z,21.00
2022-10-13T17:11:28.864Z,20.00
2022-10-13T17:13:58.022Z,21.25
2022-10-13T17:16:25.745Z,20.50
2022-10-13T17:18:53.636Z,20.50
2022-10-13T17:21:20.637Z,20.00
2022-10-13T17:23:49.021Z,19.00
2022-10-13T17:26:17.995Z,21.00
2022-10-13T17:28:45.788Z,19.00
2022-10-13T17:31:15.896Z,21.00
2022-10-13T17:33:45.519Z,20.50
2022-10-13T17:36:16.950Z,20.00
2022-10-13T17:38:44.259Z,19.00
2022-10-13T17:41:11.479Z,21.00
2022-10-13T17:43:48.078Z,21.50
2022-10-13T17:46:42.087Z,22.00
2022-10-13T17:49:11.870Z,20.75
2022-10-13T17:51:40.625Z,20.00
2022-10-13T17:54:12.915Z,18.00
2022-10-13T17:56:42.638Z,18.00
2022-10-13T17:59:09.448Z,20.00
2022-10-13T18:01:39.483Z,21.00
2022-10-13T18:04:10.800Z,20.00
2022-10-13T18:06:39.771Z,20.00
2022-10-13T18:09:13.629Z,20.50
2022-10-13T18:11:45.622Z,21.00
2022-10-13T18:14:20.125Z,22.00
2022-10-13T18:16:49.343Z,17.50
2022-10-13T18:19:22.204Z,19.50
2022-10-13T18:21:49.802Z,19.00
2022-10-13T18:24:16.716Z,19.00
2022-10-13T18:26:43.700Z,19.00
2022-10-13T18:29:12.185Z,18.00
2022-10-13T18:31:40.923Z,18.00
2022-10-13T18:34:12.877Z,21.00
2022-10-13T18:36:46.036Z,19.50
2022-10-13T18:39:14.837Z,20.00
2022-10-13T18:41:45.929Z,19.00
2022-10-13T18:44:13.155Z,20.00
2022-10-13T18:46:40.820Z,19.75
2022-10-13T18:49:11.168Z,21.00
2022-10-13T18:51:39.439Z,22.00
2022-10-13T18:54:07.555Z,21.00
2022-10-13T18:56:35.165Z,21.00
2022-10-13T18:59:03.426Z,21.00
2022-10-13T19:01:33.439Z,21.00
2022-10-13T19:04:00.724Z,21.00
2022-10-13T19:06:29.284Z,20.75
2022-10-13T19:09:07.497Z,19.00
2022-10-13T19:11:36.302Z,17.00
2022-10-13T19:14:04.700Z,17.00
2022-10-13T19:16:34.914Z,17.00
2022-10-13T19:19:01.774Z,19.75
2022-10-13T19:21:28.778Z,19.00
2022-10-13T19:23:59.221Z,20.00
2022-10-13T19:26:29.475Z,19.00
2022-10-13T19:28:59.003Z,20.00
2022-10-13T19:31:29.051Z,17.25
2022-10-13T19:33:56.924Z,17.00
2022-10-13T19:36:38.170Z,16.00
2022-10-13T19:39:11.586Z,18.50
2022-10-13T19:41:39.239Z,20.75
2022-10-13T19:44:06.214Z,19.50
2022-10-13T19:46:39.032Z,19.75
2022-10-13T19:49:05.980Z,19.00
2022-10-13T19:51:54.092Z,19.00
2022-10-13T19:54:22.013Z,18.00
2022-10-13T19:56:49.712Z,19.00
2022-10-13T19:59:17.670Z,18.00
2022-10-13T20:01:44.587Z,16.00
2022-10-13T20:04:16.337Z,16.00
2022-10-13T20:06:48.753Z,16.00
2022-10-13T20:09:16.074Z,18.00
2022-10-13T20:11:47.512Z,17.00
2022-10-13T20:14:15.278Z,16.00
2022-10-13T20:16:43.584Z,18.50
2022-10-13T20:19:16.240Z,17.25
2022-10-13T20:21:46.027Z,19.50
2022-10-13T20:24:13.482Z,20.00
2022-10-13T20:26:40.519Z,19.00
2022-10-13T20:29:07.769Z,20.00
2022-10-13T20:31:34.696Z,19.00
2022-10-13T20:34:01.605Z,18.25
2022-10-13T20:36:34.723Z,18.00
2022-10-13T20:39:04.879Z,22.00
2022-10-13T20:41:33.232Z,23.00
2022-10-13T20:44:01.227Z,20.75
2022-10-13T20:46:30.557Z,17.00
2022-10-13T20:49:10.448Z,15.50
2022-10-13T20:51:38.960Z,15.00
2022-10-13T20:54:05.901Z,17.75
2022-10-13T20:56:32.742Z,16.75
2022-10-13T20:59:16.682Z,15.00
2022-10-13T21:01:44.074Z,15.00
2022-10-13T21:04:10.933Z,18.00
2022-10-13T21:06:38.181Z,16.00
2022-10-13T21:09:20.295Z,16.00
2022-10-13T21:11:47.362Z,18.50
2022-10-13T21:14:14.251Z,16.00
2022-10-13T21:16:41.341Z,17.75
2022-10-13T21:19:11.265Z,18.00
2022-10-13T21:21:38.389Z,17.00
2022-10-13T21:24:07.444Z,19.00
2022-10-13T21:26:35.461Z,18.25
2022-10-13T21:29:02.787Z,19.00
2022-10-13T21:31:30.292Z,18.00
2022-10-13T21:33:57.214Z,17.00
2022-10-13T21:36:26.911Z,19.00
2022-10-13T21:38:58.853Z,18.00
2022-10-13T21:41:27.076Z,17.00
2022-10-13T21:43:54.647Z,17.00
2022-10-13T21:46:27.572Z,18.25
2022-10-13T21:48:57.376Z,18.00
2022-10-13T21:51:27.207Z,16.00
2022-10-13T21:53:56.875Z,16.00
2022-10-13T21:56:25.849Z,14.00
2022-10-13T21:58:53.034Z,17.00
2022-10-13T22:01:20.701Z,16.00
2022-10-13T22:03:52.041Z,15.00
2022-10-13T22:06:19.812Z,16.50
2022-10-13T22:08:49.333Z,16.00
2022-10-13T22:11:21.848Z,16.00
2022-10-13T22:13:48.677Z,16.00
2022-10-13T22:16:22.773Z,16.00
2022-10-13T22:18:54.208Z,18.50
2022-10-13T22:21:25.040Z,20.00
2022-10-13T22:23:55.653Z,16.00
2022-10-13T22:26:22.521Z,18.00
2022-10-13T22:28:49.743Z,20.00
2022-10-13T22:31:17.038Z,15.75
2022-10-13T22:33:44.050Z,16.50
2022-10-13T22:36:14.186Z,19.00
2022-10-13T22:38:41.155Z,14.75
2022-10-13T22:41:08.448Z,14.50
2022-10-13T22:43:36.407Z,16.50
2022-10-13T22:46:13.187Z,16.75
2022-10-13T22:48:41.107Z,16.00
2022-10-13T22:51:17.272Z,19.00
2022-10-13T22:53:44.461Z,19.75
2022-10-13T22:56:15.027Z,17.00
2022-10-13T22:58:41.951Z,15.00
2022-10-13T23:01:11.816Z,14.00
2022-10-13T23:03:39.795Z,15.00
2022-10-13T23:06:08.702Z,17.00
2022-10-13T23:08:35.563Z,17.00
2022-10-13T23:11:02.406Z,18.00
2022-10-13T23:13:29.352Z,17.00
2022-10-13T23:16:10.889Z,19.00
2022-10-13T23:18:39.506Z,16.00
2022-10-13T23:21:12.263Z,17.00
2022-10-13T23:23:39.303Z,17.00
2022-10-13T23:26:14.989Z,16.00
2022-10-13T23:28:43.316Z,16.00
2022-10-13T23:31:15.879Z,15.00
2022-10-13T23:33:42.818Z,18.50
2022-10-13T23:36:18.206Z,16.00
2022-10-13T23:38:48.418Z,15.00
2022-10-13T23:41:16.179Z,14.00
2022-10-13T23:43:43.537Z,17.75
2022-10-13T23:46:11.370Z,19.50
2022-10-13T23:48:39.489Z,19.00
2022-10-13T23:51:13.407Z,19.25
2022-10-13T23:53:41.918Z,21.00
2022-10-13T23:56:10.532Z,19.00
2022-10-13T23:58:39.408Z,16.00
